createdAt,value
2022-12-13T00:01:54.737Z,28.25
2022-12-13T00:04:24.375Z,23.83
2022-12-13T00:06:54.149Z,30.80
2022-12-13T00:09:22.664Z,28.10
2022-12-13T00:11:50.791Z,31.65
2022-12-13T00:14:18.280Z,28.63
2022-12-13T00:19:15.632Z,30.10
2022-12-13T00:21:43.370Z,27.60
2022-12-13T00:24:10.973Z,29.77
2022-12-13T00:26:38.609Z,26.75
2022-12-13T00:29:08.072Z,28.60
2022-12-13T00:31:58.784Z,29.23
2022-12-13T00:34:25.337Z,26.05
2022-12-13T00:36:56.240Z,28.20
2022-12-13T00:39:23.756Z,26.55
2022-12-13T00:41:51.362Z,26.80
2022-12-13T00:44:20.132Z,31.83
2022-12-13T00:46:47.866Z,29.60
2022-12-13T00:49:15.880Z,32.25
2022-12-13T00:51:44.090Z,30.77
2022-12-13T00:54:11.878Z,27.50
2022-12-13T00:56:39.316Z,33.00
2022-12-13T01:04:05.560Z,33.95
2022-12-13T01:06:38.836Z,31.45
2022-12-13T01:09:10.287Z,28.90
2022-12-13T01:11:37.800Z,32.38
2022-12-13T01:18:59.900Z,30.65
2022-12-13T01:24:03.473Z,29.92
2022-12-13T01:26:31.872Z,30.20
2022-12-13T01:28:59.609Z,35.88
2022-12-13T01:31:27.368Z,32.20
2022-12-13T01:33:55.077Z,27.55
2022-12-13T01:36:26.946Z,33.97
2022-12-13T01:38:58.753Z,33.40
2022-12-13T01:41:28.914Z,35.15
2022-12-13T01:44:03.737Z,33.22
2022-12-13T01:46:35.472Z,34.58
2022-12-13T01:49:19.810Z,32.05
2022-12-13T01:52:00.017Z,36.67
2022-12-13T01:54:33.644Z,30.13
2022-12-13T01:57:05.539Z,31.83
2022-12-13T01:59:36.161Z,33.03
2022-12-13T02:02:05.025Z,35.03
2022-12-13T02:04:45.509Z,35.92
2022-12-13T02:07:23.236Z,31.85
2022-12-13T02:09:56.636Z,34.00
2022-12-13T02:12:31.115Z,35.83
2022-12-13T02:15:02.870Z,32.40
2022-12-13T02:17:46.464Z,34.33
2022-12-13T02:20:23.092Z,35.17
2022-12-13T02:23:13.748Z,31.60
2022-12-13T02:26:03.227Z,34.15
2022-12-13T02:28:53.999Z,32.55
2022-12-13T02:31:41.301Z,33.08
2022-12-13T02:34:18.522Z,35.35
2022-12-13T02:39:30.341Z,30.55
2022-12-13T02:42:07.983Z,33.78
2022-12-13T02:44:58.022Z,30.90
2022-12-13T02:47:27.606Z,33.88
2022-12-13T02:49:59.338Z,30.52
2022-12-13T02:52:29.488Z,29.67
2022-12-13T02:54:58.281Z,33.42
2022-12-13T02:57:37.736Z,33.33
2022-12-13T03:00:09.664Z,35.22
2022-12-13T03:02:37.153Z,34.47
2022-12-13T03:08:17.724Z,35.72
2022-12-13T03:11:05.603Z,35.47
2022-12-13T03:13:59.870Z,35.20
2022-12-13T03:16:40.038Z,32.17
2022-12-13T03:19:09.977Z,33.13
2022-12-13T03:21:47.623Z,31.42
2022-12-13T03:24:20.915Z,31.98
2022-12-13T03:26:52.405Z,27.60
2022-12-13T03:29:24.135Z,34.45
2022-12-13T03:31:53.702Z,33.72
2022-12-13T03:34:23.041Z,31.73
2022-12-13T03:36:52.863Z,31.80
2022-12-13T03:39:20.696Z,34.85
2022-12-13T03:41:49.412Z,32.33
2022-12-13T03:44:16.950Z,32.53
2022-12-13T03:46:45.240Z,29.75
2022-12-13T03:51:45.507Z,32.65
2022-12-13T03:54:13.003Z,33.50
2022-12-13T03:56:40.568Z,30.80
2022-12-13T04:01:35.537Z,33.72
2022-12-13T04:09:00.857Z,30.10
2022-12-13T04:14:21.747Z,28.75
2022-12-13T04:16:53.564Z,30.02
2022-12-13T04:19:23.199Z,33.58
2022-12-13T04:21:54.392Z,32.83
2022-12-13T04:24:31.766Z,30.67
2022-12-13T04:27:03.620Z,30.33
2022-12-13T04:29:34.637Z,31.13
2022-12-13T04:32:05.048Z,31.48
2022-12-13T04:34:37.120Z,33.55
2022-12-13T04:37:05.759Z,29.95
2022-12-13T04:39:34.236Z,33.42
2022-12-13T04:42:03.568Z,29.80
2022-12-13T04:44:36.624Z,30.63
2022-12-13T04:47:05.692Z,35.60
2022-12-13T04:49:33.785Z,31.30
2022-12-13T04:52:02.461Z,32.80
2022-12-13T04:54:35.567Z,34.85
2022-12-13T04:57:07.410Z,31.70
2022-12-13T04:59:35.735Z,31.90
2022-12-13T05:02:04.994Z,32.10
2022-12-13T05:04:33.442Z,28.60
2022-12-13T05:07:02.510Z,29.58
2022-12-13T05:09:30.585Z,32.97
2022-12-13T05:12:01.362Z,30.05
2022-12-13T05:14:32.801Z,28.70
2022-12-13T05:17:01.209Z,29.17
2022-12-13T05:19:30.563Z,31.42
2022-12-13T05:22:01.108Z,29.65
2022-12-13T05:24:31.243Z,30.55
2022-12-13T05:26:59.816Z,27.95
2022-12-13T05:29:28.115Z,29.95
2022-12-13T05:31:55.726Z,31.88
2022-12-13T05:34:23.487Z,31.83
2022-12-13T05:36:51.050Z,28.90
2022-12-13T05:39:28.970Z,28.92
2022-12-13T05:42:02.204Z,30.05
2022-12-13T05:44:32.596Z,30.42
2022-12-13T05:47:01.932Z,31.13
2022-12-13T05:49:29.861Z,27.17
2022-12-13T05:56:52.213Z,26.13
2022-12-13T05:59:19.712Z,32.45
2022-12-13T06:06:52.219Z,30.23
2022-12-13T06:09:20.702Z,31.25
2022-12-13T06:11:49.497Z,30.42
2022-12-13T06:14:21.741Z,31.35
2022-12-13T06:16:56.916Z,28.35
2022-12-13T06:19:25.332Z,32.38
2022-12-13T06:21:54.920Z,30.52
2022-12-13T06:24:23.701Z,33.42
2022-12-13T06:26:51.281Z,33.10
2022-12-13T06:29:23.475Z,29.40
2022-12-13T06:32:01.981Z,33.72
2022-12-13T06:34:36.255Z,30.83
2022-12-13T06:37:07.265Z,30.20
2022-12-13T06:39:35.480Z,32.97
2022-12-13T06:42:06.409Z,36.28
2022-12-13T06:44:34.992Z,28.35
2022-12-13T06:47:10.223Z,28.40
2022-12-13T06:49:43.127Z,31.65
2022-12-13T06:52:12.828Z,32.08
2022-12-13T06:54:41.131Z,32.03
2022-12-13T06:57:09.287Z,30.42
2022-12-13T07:00:13.379Z,32.75
2022-12-13T07:02:41.583Z,29.90
2022-12-13T07:05:10.684Z,31.27
2022-12-13T07:07:38.177Z,32.45
2022-12-13T07:12:50.133Z,28.88
2022-12-13T07:15:17.761Z,34.42
2022-12-13T07:17:45.287Z,31.45
2022-12-13T07:22:47.884Z,32.85
2022-12-13T07:25:28.172Z,31.00
2022-12-13T07:28:02.722Z,30.95
2022-12-13T07:30:40.973Z,29.88
2022-12-13T07:33:09.665Z,30.30
2022-12-13T07:35:37.838Z,33.28
2022-12-13T07:38:10.934Z,29.67
2022-12-13T07:40:40.184Z,32.45
2022-12-13T07:43:08.118Z,32.55
2022-12-13T07:45:36.631Z,30.95
2022-12-13T07:48:05.761Z,32.10
2022-12-13T07:50:37.250Z,30.65
2022-12-13T07:53:07.793Z,34.88
2022-12-13T07:55:36.756Z,34.97
2022-12-13T07:58:12.453Z,30.00
2022-12-13T08:00:46.045Z,32.30
2022-12-13T08:03:24.664Z,30.73
2022-12-13T08:06:04.471Z,30.23
2022-12-13T08:08:32.943Z,34.25
2022-12-13T08:11:06.082Z,33.90
2022-12-13T08:13:34.741Z,31.00
2022-12-13T08:16:05.262Z,29.85
2022-12-13T08:18:52.676Z,31.48
2022-12-13T08:21:58.383Z,32.65
2022-12-13T08:24:30.324Z,31.23
2022-12-13T08:27:03.093Z,29.50
2022-12-13T08:29:35.141Z,30.20
2022-12-13T08:32:09.556Z,32.45
2022-12-13T08:34:37.558Z,31.65
2022-12-13T08:37:05.382Z,28.30
2022-12-13T08:39:35.669Z,31.75
2022-12-13T08:42:16.457Z,30.30
2022-12-13T08:44:50.847Z,31.63
2022-12-13T08:47:23.500Z,30.65
2022-12-13T08:50:01.571Z,27.00
2022-12-13T08:52:39.837Z,31.58
2022-12-13T08:55:11.006Z,33.75
2022-12-13T08:57:39.402Z,30.50
2022-12-13T09:00:09.192Z,29.17
2022-12-13T09:02:38.119Z,31.55
2022-12-13T09:05:08.051Z,30.30
2022-12-13T09:07:36.782Z,24.92
2022-12-13T09:10:06.997Z,25.50
2022-12-13T09:13:01.497Z,30.27
2022-12-13T09:15:33.902Z,27.67
2022-12-13T09:18:05.090Z,28.33
2022-12-13T09:20:40.955Z,31.13
2022-12-13T09:23:13.601Z,29.73
2022-12-13T09:26:05.984Z,31.33
2022-12-13T09:28:35.476Z,31.30
2022-12-13T09:31:15.900Z,29.75
2022-12-13T09:33:44.264Z,37.20
2022-12-13T09:36:15.052Z,30.75
2022-12-13T09:38:42.671Z,33.00
2022-12-13T09:41:28.780Z,31.60
2022-12-13T09:44:04.861Z,28.75
2022-12-13T09:46:44.088Z,33.70
2022-12-13T09:49:35.355Z,33.88
2022-12-13T09:52:10.522Z,31.35
2022-12-13T09:54:49.107Z,33.30
2022-12-13T10:00:13.514Z,29.90
2022-12-13T10:02:54.035Z,29.90
2022-12-13T10:05:39.865Z,31.05
2022-12-13T10:08:17.039Z,27.37
2022-12-13T10:10:45.165Z,27.17
2022-12-13T10:13:21.846Z,28.77
2022-12-13T10:15:58.161Z,30.75
2022-12-13T10:18:40.188Z,29.85
2022-12-13T10:21:42.232Z,31.25
2022-12-13T10:24:27.281Z,35.63
2022-12-13T10:27:17.166Z,27.40
2022-12-13T10:30:06.651Z,30.60
2022-12-13T10:33:02.908Z,28.27
2022-12-13T10:35:32.657Z,32.35
2022-12-13T10:38:31.633Z,32.03
2022-12-13T10:41:01.694Z,27.70
2022-12-13T10:43:30.633Z,28.67
2022-12-13T10:46:01.158Z,25.90
2022-12-13T10:48:47.278Z,26.23
2022-12-13T10:51:20.195Z,26.98
2022-12-13T10:53:59.124Z,30.00
2022-12-13T10:57:02.437Z,28.55
2022-12-13T10:59:38.741Z,28.13
2022-12-13T11:02:32.058Z,27.67
2022-12-13T11:05:16.453Z,26.77
2022-12-13T11:07:50.888Z,25.88
2022-12-13T11:13:02.561Z,26.33
2022-12-13T11:15:32.245Z,27.48
2022-12-13T11:18:02.694Z,25.30
2022-12-13T11:20:38.252Z,27.40
2022-12-13T11:23:23.294Z,26.90
2022-12-13T11:25:56.556Z,27.60
2022-12-13T11:28:48.230Z,30.13
2022-12-13T11:31:31.850Z,30.10
2022-12-13T11:34:31.165Z,25.85
2022-12-13T11:37:11.265Z,27.40
2022-12-13T11:39:46.460Z,27.30
2022-12-13T11:42:19.798Z,29.35
2022-12-13T11:45:02.980Z,24.90
2022-12-13T11:47:44.089Z,27.15
2022-12-13T11:50:33.591Z,28.65
2022-12-13T11:53:23.410Z,23.10
2022-12-13T11:56:11.853Z,24.00
2022-12-13T11:59:16.099Z,24.27
2022-12-13T12:02:05.094Z,25.40
2022-12-13T12:04:46.894Z,23.08
2022-12-13T12:07:32.278Z,24.75
2022-12-13T12:10:23.244Z,25.48
2022-12-13T12:12:57.857Z,22.95
2022-12-13T12:15:55.190Z,26.85
2022-12-13T12:18:23.360Z,24.90
2022-12-13T12:20:53.984Z,28.65
2022-12-13T12:23:43.669Z,25.23
2022-12-13T12:26:18.214Z,26.45
2022-12-13T12:29:12.385Z,27.02
2022-12-13T12:31:51.866Z,27.08
2022-12-13T12:34:46.267Z,26.35
2022-12-13T12:37:43.433Z,29.77
2022-12-13T12:41:14.635Z,27.10
2022-12-13T12:43:42.461Z,27.90
2022-12-13T12:46:29.578Z,28.70
2022-12-13T12:51:44.916Z,26.52
2022-12-13T12:54:32.217Z,26.02
2022-12-13T12:57:30.836Z,27.38
2022-12-13T13:00:12.149Z,26.55
2022-12-13T13:03:01.633Z,29.63
2022-12-13T13:05:37.386Z,25.45
2022-12-13T13:08:30.156Z,26.20
2022-12-13T13:11:01.937Z,26.55
2022-12-13T13:14:06.627Z,26.42
2022-12-13T13:16:38.260Z,29.45
2022-12-13T13:19:11.763Z,27.35
2022-12-13T13:21:47.425Z,25.25
2022-12-13T13:24:19.454Z,28.60
2022-12-13T13:26:48.655Z,26.30
2022-12-13T13:29:27.193Z,27.08
2022-12-13T13:32:05.934Z,24.02
2022-12-13T13:34:37.561Z,22.35
2022-12-13T13:37:25.405Z,22.52
2022-12-13T13:39:52.975Z,25.63
2022-12-13T13:44:49.825Z,23.60
2022-12-13T13:47:41.155Z,26.45
2022-12-13T13:50:08.666Z,26.65
2022-12-13T13:52:54.431Z,24.70
2022-12-13T13:56:02.003Z,27.90
2022-12-13T13:59:04.094Z,26.13
2022-12-13T14:02:13.440Z,28.42
2022-12-13T14:05:02.779Z,26.85
2022-12-13T14:07:51.165Z,25.92
2022-12-13T14:10:56.149Z,23.60
2022-12-13T14:13:56.058Z,24.10
2022-12-13T14:17:00.597Z,26.58
2022-12-13T14:20:06.569Z,24.25
2022-12-13T14:22:52.335Z,25.70
2022-12-13T14:25:52.054Z,30.58
2022-12-13T14:28:26.263Z,23.60
2022-12-13T14:31:01.411Z,24.20
2022-12-13T14:33:30.091Z,23.05
2022-12-13T14:36:00.030Z,25.95
2022-12-13T14:38:30.601Z,25.90
2022-12-13T14:41:00.472Z,26.67
2022-12-13T14:43:32.727Z,23.20
2022-12-13T14:46:07.297Z,23.40
2022-12-13T14:48:43.899Z,23.65
2022-12-13T14:51:38.247Z,30.60
2022-12-13T14:54:08.030Z,23.95
2022-12-13T14:56:35.433Z,26.67
2022-12-13T15:01:40.516Z,24.77
2022-12-13T15:04:27.103Z,24.13
2022-12-13T15:07:01.548Z,25.67
2022-12-13T15:09:30.786Z,23.98
2022-12-13T15:12:23.557Z,23.13
2022-12-13T15:14:53.704Z,22.65
2022-12-13T15:17:42.547Z,26.10
2022-12-13T15:20:26.685Z,24.23
2022-12-13T15:23:04.600Z,24.15
2022-12-13T15:25:35.864Z,23.85
2022-12-13T15:28:04.694Z,23.40
2022-12-13T15:30:35.002Z,23.85
2022-12-13T15:33:27.604Z,25.50
2022-12-13T15:36:13.648Z,23.73
2022-12-13T15:38:49.767Z,25.33
2022-12-13T15:41:19.532Z,24.63
2022-12-13T15:44:01.384Z,24.35
2022-12-13T15:46:38.271Z,26.83
2022-12-13T15:49:20.056Z,35.90
2022-12-13T15:51:59.855Z,28.30
2022-12-13T15:54:28.739Z,26.02
2022-12-13T15:57:17.643Z,23.58
2022-12-13T15:59:46.079Z,24.08
2022-12-13T16:02:24.524Z,26.30
2022-12-13T16:04:52.494Z,25.02
2022-12-13T16:07:27.057Z,27.77
2022-12-13T16:09:55.734Z,24.10
2022-12-13T16:12:47.798Z,26.33
2022-12-13T16:15:29.316Z,25.98
2022-12-13T16:18:16.403Z,27.05
2022-12-13T16:20:46.161Z,27.25
2022-12-13T16:23:26.864Z,29.90
2022-12-13T16:25:55.412Z,27.00
2022-12-13T16:28:26.153Z,24.67
2022-12-13T16:30:54.140Z,25.52
2022-12-13T16:35:56.224Z,24.20
2022-12-13T16:38:26.376Z,28.25
2022-12-13T16:40:56.741Z,26.73
2022-12-13T16:43:33.519Z,27.88
2022-12-13T16:48:51.809Z,26.13
2022-12-13T16:51:19.841Z,25.23
2022-12-13T16:53:47.941Z,25.17
2022-12-13T16:56:21.621Z,28.15
2022-12-13T16:58:50.675Z,27.92
2022-12-13T17:01:20.271Z,27.73
2022-12-13T17:03:47.969Z,29.23
2022-12-13T17:08:44.477Z,26.45
2022-12-13T17:13:47.761Z,28.88
2022-12-13T17:16:15.753Z,26.25
2022-12-13T17:18:43.334Z,26.88
2022-12-13T17:26:11.474Z,29.35
2022-12-13T17:28:39.345Z,28.52
2022-12-13T17:31:13.392Z,33.92
2022-12-13T17:33:42.954Z,31.35
2022-12-13T17:36:12.151Z,30.13
2022-12-13T17:38:45.810Z,29.52
2022-12-13T17:41:14.664Z,29.15
2022-12-13T17:43:43.483Z,30.17
2022-12-13T17:46:16.784Z,33.15
2022-12-13T17:48:45.733Z,24.67
2022-12-13T17:51:14.151Z,29.58
2022-12-13T17:53:43.355Z,29.98
2022-12-13T17:56:13.149Z,28.60
2022-12-13T17:58:40.817Z,25.35
2022-12-13T18:01:22.974Z,30.95
2022-12-13T18:03:53.310Z,28.17
2022-12-13T18:06:21.455Z,30.58
2022-12-13T18:08:49.013Z,27.52
2022-12-13T18:14:08.137Z,29.00
2022-12-13T18:16:38.673Z,33.70
2022-12-13T18:19:10.747Z,32.40
2022-12-13T18:21:38.775Z,31.77
2022-12-13T18:24:07.215Z,31.13
2022-12-13T18:26:34.960Z,28.67
2022-12-13T18:29:03.504Z,28.45
2022-12-13T18:31:31.103Z,31.00
2022-12-13T18:36:26.798Z,30.65
2022-12-13T18:38:54.517Z,31.70
2022-12-13T18:41:25.170Z,32.58
2022-12-13T18:44:00.959Z,32.47
2022-12-13T18:46:31.133Z,31.17
2022-12-13T18:48:58.752Z,32.05
2022-12-13T18:51:27.451Z,30.92
2022-12-13T18:53:56.232Z,30.60
2022-12-13T18:56:24.931Z,32.13
2022-12-13T18:58:53.581Z,29.92
2022-12-13T19:01:22.985Z,31.45
2022-12-13T19:03:51.327Z,32.65
2022-12-13T19:06:24.915Z,33.47
2022-12-13T19:08:56.334Z,31.60
2022-12-13T19:11:26.835Z,34.10
2022-12-13T19:13:55.066Z,34.13
2022-12-13T19:16:24.229Z,30.10
2022-12-13T19:18:51.801Z,32.75
2022-12-13T19:21:21.746Z,31.20
2022-12-13T19:23:56.547Z,29.67
2022-12-13T19:26:25.958Z,35.22
2022-12-13T19:28:53.530Z,35.88
2022-12-13T19:31:25.470Z,33.08
2022-12-13T19:33:56.848Z,35.50
2022-12-13T19:36:24.518Z,35.47
2022-12-13T19:38:51.961Z,29.58
2022-12-13T19:41:19.467Z,31.70
2022-12-13T19:43:52.884Z,32.28
2022-12-13T19:46:21.684Z,34.53
2022-12-13T19:48:49.253Z,33.08
2022-12-13T19:51:16.955Z,30.05
2022-12-13T19:53:44.601Z,31.42
2022-12-13T19:56:17.864Z,35.70
2022-12-13T19:58:48.360Z,32.67
2022-12-13T20:01:17.385Z,33.50
2022-12-13T20:03:46.567Z,31.95
2022-12-13T20:06:17.260Z,31.60
2022-12-13T20:08:46.001Z,32.08
2022-12-13T20:11:19.171Z,30.02
2022-12-13T20:13:48.218Z,31.92
2022-12-13T20:16:21.777Z,34.78
2022-12-13T20:18:54.464Z,33.72
2022-12-13T20:21:22.178Z,30.88
2022-12-13T20:23:50.296Z,30.67
2022-12-13T20:26:22.189Z,30.92
2022-12-13T20:28:50.192Z,33.90
2022-12-13T20:31:24.000Z,35.50
2022-12-13T20:33:56.280Z,33.85
2022-12-13T20:36:26.922Z,31.63
2022-12-13T20:39:00.711Z,32.45
2022-12-13T20:41:30.361Z,31.55
2022-12-13T20:43:59.254Z,35.47
2022-12-13T20:46:28.016Z,33.33
2022-12-13T20:48:57.879Z,35.58
2022-12-13T20:51:27.179Z,33.75
2022-12-13T20:53:56.050Z,34.30
2022-12-13T20:56:26.735Z,34.15
2022-12-13T20:58:54.757Z,34.20
2022-12-13T21:01:28.449Z,33.67
2022-12-13T21:03:58.590Z,34.70
2022-12-13T21:06:31.796Z,32.28
2022-12-13T21:09:02.926Z,31.77
2022-12-13T21:11:44.131Z,35.22
2022-12-13T21:14:25.275Z,30.77
2022-12-13T21:16:57.972Z,36.75
2022-12-13T21:19:28.500Z,32.60
2022-12-13T21:21:56.988Z,39.05
2022-12-13T21:24:26.667Z,34.70
2022-12-13T21:26:56.553Z,33.28
2022-12-13T21:29:24.741Z,36.10
2022-12-13T21:31:53.480Z,35.40
2022-12-13T21:34:23.909Z,36.80
2022-12-13T21:36:52.950Z,34.65
2022-12-13T21:39:23.101Z,36.67
2022-12-13T21:41:51.028Z,34.40
2022-12-13T21:44:19.544Z,37.08
2022-12-13T21:47:11.393Z,32.90
2022-12-13T21:49:35.482Z,39.28
2022-12-13T21:52:03.278Z,37.33
2022-12-13T21:54:31.093Z,36.25
2022-12-13T21:57:17.196Z,33.67
2022-12-13T21:59:44.697Z,34.42
2022-12-13T22:04:51.612Z,38.22
2022-12-13T22:07:31.140Z,38.45
2022-12-13T22:10:00.311Z,38.15
2022-12-13T22:12:39.702Z,34.92
2022-12-13T22:15:12.129Z,34.83
2022-12-13T22:17:40.305Z,38.58
2022-12-13T22:20:11.371Z,38.30
2022-12-13T22:22:40.322Z,36.25
2022-12-13T22:25:08.857Z,35.97
2022-12-13T22:27:36.589Z,39.20
2022-12-13T22:30:04.928Z,40.47
2022-12-13T22:32:34.032Z,37.80
2022-12-13T22:35:01.726Z,35.22
2022-12-13T22:37:29.739Z,39.50
2022-12-13T22:39:57.116Z,37.13
2022-12-13T22:47:19.863Z,38.22
2022-12-13T22:49:48.796Z,35.55
2022-12-13T22:52:17.477Z,35.05
2022-12-13T22:54:45.010Z,35.28
2022-12-13T22:57:12.510Z,42.65
2022-12-13T23:02:07.845Z,41.85
2022-12-13T23:04:35.523Z,37.55
2022-12-13T23:07:03.039Z,40.75
2022-12-13T23:09:31.164Z,39.00
2022-12-13T23:14:44.777Z,36.95
2022-12-13T23:17:12.298Z,35.13
2022-12-13T23:19:50.980Z,41.25
2022-12-13T23:22:25.242Z,39.35
2022-12-13T23:24:53.207Z,37.05
2022-12-13T23:27:22.778Z,39.45
2022-12-13T23:29:50.430Z,40.55
2022-12-13T23:32:18.018Z,40.17
2022-12-13T23:34:45.605Z,38.17
2022-12-13T23:37:13.732Z,39.10
2022-12-13T23:39:41.688Z,38.47
2022-12-13T23:42:09.055Z,39.47
2022-12-13T23:49:31.336Z,35.95
2022-12-13T23:54:26.985Z,34.00
2022-12-13T23:56:54.604Z,36.20
2022-12-13T23:59:22.258Z,36.03
